createdAt,value
2018-07-19T05:01:58.570Z,4.93
2018-07-19T05:07:01.911Z,6.30
2018-07-19T05:12:05.256Z,5.03
2018-07-19T05:17:08.595Z,5.00
2018-07-19T05:22:11.946Z,4.50
2018-07-19T05:27:15.869Z,4.70
2018-07-19T05:32:19.218Z,6.17
2018-07-19T05:37:22.569Z,4.87
2018-07-19T05:42:25.972Z,6.30
2018-07-19T05:47:29.266Z,5.43
2018-07-19T05:52:32.625Z,5.80
2018-07-19T05:57:35.974Z,5.40
2018-07-19T06:02:39.315Z,4.97
2018-07-19T06:07:42.654Z,4.10
2018-07-19T06:12:46.760Z,3.83
2018-07-19T06:17:50.103Z,4.00
2018-07-19T06:22:54.206Z,3.63
2018-07-19T06:27:57.564Z,5.43
2018-07-19T06:33:00.903Z,5.20
2018-07-19T06:38:04.246Z,4.17
2018-07-19T06:43:07.605Z,3.63
2018-07-19T06:48:10.951Z,3.63
2018-07-19T06:53:14.292Z,3.30
2018-07-19T06:58:17.618Z,3.00
2018-07-19T07:03:20.979Z,3.10
2018-07-19T07:08:24.327Z,3.30
2018-07-19T07:13:27.664Z,3.33
2018-07-19T07:18:31.758Z,2.77
2018-07-19T07:23:35.097Z,2.60
2018-07-19T07:28:38.446Z,2.53
2018-07-19T07:33:41.786Z,2.50
2018-07-19T07:38:45.148Z,2.80
2018-07-19T07:43:48.482Z,3.00
2018-07-19T07:48:51.843Z,2.50
2018-07-19T07:53:55.199Z,2.93
2018-07-19T07:58:58.550Z,2.67
2018-07-19T08:04:01.890Z,2.60
2018-07-19T08:09:05.252Z,2.83
2018-07-19T08:14:08.606Z,3.00
2018-07-19T08:19:11.958Z,2.90
2018-07-19T08:24:15.351Z,2.83
2018-07-19T08:29:18.698Z,2.67
2018-07-19T08:34:22.059Z,1.90
2018-07-19T08:39:25.420Z,2.77
2018-07-19T08:44:28.783Z,2.63
2018-07-19T08:49:32.122Z,2.60
2018-07-19T08:54:36.256Z,2.23
2018-07-19T08:59:40.370Z,2.30
2018-07-19T09:04:43.725Z,2.30
2018-07-19T09:09:51.429Z,2.63
2018-07-19T09:14:56.979Z,2.47
2018-07-19T09:20:06.018Z,2.30
2018-07-19T09:25:10.125Z,2.40
2018-07-19T09:30:13.482Z,1.93
2018-07-19T09:35:16.851Z,2.40
2018-07-19T09:40:20.199Z,2.57
2018-07-19T09:45:24.294Z,2.17
2018-07-19T09:50:27.639Z,1.97
2018-07-19T09:55:31.752Z,2.10
2018-07-19T10:00:35.114Z,1.87
2018-07-19T10:05:38.467Z,1.63
2018-07-19T10:10:41.805Z,2.00
2018-07-19T10:15:45.150Z,2.03
2018-07-19T10:20:49.413Z,1.83
2018-07-19T10:25:53.806Z,2.20
2018-07-19T10:30:57.158Z,1.90
2018-07-19T10:36:00.499Z,1.93
2018-07-19T10:41:03.846Z,2.40
2018-07-19T10:46:07.229Z,2.23
2018-07-19T10:51:10.534Z,2.20
2018-07-19T10:56:13.860Z,2.20
2018-07-19T11:01:17.338Z,2.23
2018-07-19T11:06:20.865Z,1.67
2018-07-19T11:11:24.387Z,1.80
2018-07-19T11:16:27.756Z,2.30
2018-07-19T11:21:31.202Z,2.00
2018-07-19T11:26:34.580Z,2.20
2018-07-19T11:31:38.838Z,2.30
2018-07-19T11:36:42.479Z,2.23
2018-07-19T11:41:45.840Z,2.60
2018-07-19T11:46:49.962Z,2.13
2018-07-19T11:51:54.075Z,2.10
2018-07-19T11:56:57.520Z,2.23
2018-07-19T12:02:00.878Z,2.47
2018-07-19T12:07:04.311Z,2.50
2018-07-19T12:12:07.659Z,2.40
2018-07-19T12:17:11.014Z,2.60
2018-07-19T12:22:14.340Z,2.60
2018-07-19T12:27:17.680Z,2.83
2018-07-19T12:32:21.014Z,2.70
2018-07-19T12:37:25.099Z,2.50
2018-07-19T12:42:28.429Z,2.40
2018-07-19T12:47:31.758Z,2.70
2018-07-19T12:52:35.114Z,2.60
2018-07-19T12:57:38.445Z,2.80
2018-07-19T13:02:41.772Z,2.10
2018-07-19T13:07:45.145Z,2.23
2018-07-19T13:12:48.472Z,2.67
2018-07-19T13:17:51.804Z,2.50
2018-07-19T13:22:55.127Z,2.50
2018-07-19T13:27:58.454Z,2.40
2018-07-19T13:33:01.802Z,2.30
2018-07-19T13:38:05.146Z,2.13
2018-07-19T13:43:08.471Z,2.90
2018-07-19T13:48:11.795Z,2.60
2018-07-19T13:58:43.070Z,2.60
2018-07-19T14:03:46.399Z,2.42
2018-07-19T14:08:49.735Z,2.25
2018-07-19T14:13:53.161Z,1.80
2018-07-19T14:18:57.280Z,2.40
2018-07-19T14:24:00.646Z,2.53
2018-07-19T14:29:03.979Z,2.15
2018-07-19T14:34:07.318Z,2.37
2018-07-19T14:39:10.655Z,2.15
2018-07-19T14:44:14.021Z,2.40
2018-07-19T14:49:17.353Z,2.37
2018-07-19T14:54:21.236Z,2.33
2018-07-19T14:59:24.725Z,2.08
2018-07-19T15:04:28.076Z,2.67
2018-07-19T15:09:31.402Z,2.37
2018-07-19T15:14:34.739Z,2.70
2018-07-19T15:19:38.062Z,2.20
2018-07-19T15:24:41.426Z,2.25
2018-07-19T15:29:44.953Z,2.42
2018-07-19T15:34:48.317Z,2.17
2018-07-19T15:39:52.411Z,2.80
2018-07-19T15:44:55.790Z,2.10
2018-07-19T15:49:59.164Z,2.20
2018-07-19T15:55:03.689Z,1.77
2018-07-19T16:00:07.035Z,1.80
2018-07-19T16:05:11.122Z,1.77
2018-07-19T16:10:14.459Z,1.67
2018-07-19T16:15:17.784Z,1.85
2018-07-19T16:20:21.878Z,2.05
2018-07-19T16:25:25.214Z,2.40
2018-07-19T16:30:28.538Z,2.30
2018-07-19T16:35:32.639Z,2.55
2018-07-19T16:40:35.975Z,2.35
2018-07-19T16:45:40.071Z,2.50
2018-07-19T16:50:43.397Z,2.37
2018-07-19T16:55:46.733Z,2.00
2018-07-19T17:00:50.822Z,2.55
2018-07-19T17:05:54.138Z,2.37
2018-07-19T17:10:57.477Z,2.58
2018-07-19T17:16:00.818Z,2.45
2018-07-19T17:21:04.146Z,2.20
2018-07-19T17:26:08.243Z,2.20
2018-07-19T17:31:11.589Z,2.30
2018-07-19T17:36:15.691Z,2.53
2018-07-19T17:41:19.023Z,2.53
2018-07-19T17:46:23.117Z,2.40
2018-07-19T17:51:26.442Z,2.78
2018-07-19T17:56:29.813Z,2.83
2018-07-19T18:01:33.878Z,2.75
2018-07-19T18:06:37.590Z,2.40
2018-07-19T18:11:41.107Z,2.33
2018-07-19T18:16:44.622Z,2.20
2018-07-19T18:21:47.975Z,2.25
2018-07-19T18:26:52.304Z,2.15
2018-07-19T18:31:55.606Z,2.15
2018-07-19T18:36:59.034Z,2.28
2018-07-19T18:42:02.385Z,2.72
2018-07-19T18:47:07.610Z,1.92
2018-07-19T18:52:11.714Z,2.28
2018-07-19T18:57:15.060Z,2.47
2018-07-19T19:02:18.403Z,2.33
2018-07-19T19:07:21.738Z,2.45
2018-07-19T19:12:25.088Z,3.45
2018-07-19T19:17:28.430Z,5.57
2018-07-19T19:22:31.771Z,3.15
2018-07-19T19:27:35.117Z,2.60
2018-07-19T19:32:38.475Z,2.20
2018-07-19T19:37:41.799Z,2.10
2018-07-19T19:42:45.316Z,3.90
2018-07-19T19:47:48.651Z,3.37
2018-07-19T19:52:52.009Z,2.90
2018-07-19T19:57:56.484Z,2.73
2018-07-19T20:03:01.009Z,2.77
2018-07-19T20:08:04.855Z,3.07
2018-07-19T20:13:08.433Z,4.10
2018-07-19T20:18:11.812Z,4.73
2018-07-19T20:23:15.257Z,3.93
2018-07-19T20:28:18.627Z,4.70
2018-07-19T20:33:22.074Z,4.40
2018-07-19T20:38:25.462Z,6.43
2018-07-19T20:43:28.979Z,4.83
2018-07-19T20:48:33.256Z,3.90
2018-07-19T20:53:36.769Z,4.50
2018-07-19T20:58:40.261Z,4.40
2018-07-19T21:03:45.239Z,5.07
2018-07-19T21:08:48.833Z,3.67
2018-07-19T21:13:52.354Z,4.40
2018-07-19T21:18:56.470Z,3.83
2018-07-19T21:23:59.817Z,4.20
2018-07-19T21:29:03.142Z,4.97
2018-07-19T21:34:06.475Z,4.10
2018-07-19T21:39:09.886Z,4.37
2018-07-19T21:44:13.230Z,4.37
2018-07-19T21:49:16.727Z,3.93
2018-07-19T21:54:20.063Z,3.93
2018-07-19T21:59:23.390Z,4.10
2018-07-19T22:04:26.734Z,4.57
2018-07-19T22:09:45.267Z,4.30
2018-07-19T22:14:49.367Z,5.20
2018-07-19T22:19:52.871Z,4.60
2018-07-19T22:24:56.193Z,4.23
2018-07-19T22:30:09.412Z,4.63
